createdAt,value
2017-10-15T11:57:27.335Z,210
2017-10-15T11:57:39.682Z,210
2017-10-15T11:57:53.156Z,210
2017-10-15T11:58:06.586Z,210
2017-10-15T11:58:19.504Z,215
2017-10-15T11:58:32.991Z,215
2017-10-15T11:58:45.912Z,215
2017-10-15T11:58:59.315Z,215
2017-10-15T11:59:11.671Z,210
2017-10-15T11:59:25.101Z,215
2017-10-15T11:59:38.592Z,220
2017-10-15T11:59:52.044Z,225
2017-10-15T12:00:05.475Z,230
2017-10-15T12:00:18.908Z,235
2017-10-15T12:00:32.460Z,245
2017-10-15T12:00:45.389Z,255
2017-10-15T12:00:58.299Z,255
2017-10-15T12:01:11.724Z,260
2017-10-15T12:01:25.343Z,260
2017-10-15T12:01:38.800Z,260
2017-10-15T12:01:52.257Z,250
2017-10-15T12:02:05.164Z,245
2017-10-15T12:02:18.720Z,240
2017-10-15T12:02:32.155Z,235
2017-10-15T12:02:45.637Z,235
2017-10-15T12:02:59.104Z,230
2017-10-15T12:03:11.991Z,220
2017-10-15T12:03:24.348Z,215
2017-10-15T12:03:39.196Z,205
2017-10-15T12:03:52.655Z,195
2017-10-15T12:04:06.126Z,190
2017-10-15T12:04:19.592Z,195
2017-10-15T12:04:33.006Z,195
2017-10-15T12:04:46.471Z,200
2017-10-15T12:04:59.444Z,200
2017-10-15T12:05:12.328Z,200
2017-10-15T12:05:25.769Z,200
2017-10-15T12:05:39.274Z,200
2017-10-15T12:05:52.184Z,200
2017-10-15T12:06:05.120Z,200
2017-10-15T12:06:18.612Z,200
2017-10-15T12:06:32.039Z,205
2017-10-15T12:06:45.475Z,205
2017-10-15T12:06:58.916Z,205
2017-10-15T12:07:11.834Z,200
2017-10-15T12:07:25.255Z,200
2017-10-15T12:07:38.731Z,195
2017-10-15T12:07:52.134Z,195
2017-10-15T12:08:05.049Z,190
2017-10-15T12:08:17.937Z,190
2017-10-15T12:08:31.400Z,190
2017-10-15T12:08:44.291Z,185
2017-10-15T12:08:57.203Z,185
2017-10-15T12:09:10.663Z,185
2017-10-15T12:09:23.562Z,185
2017-10-15T12:09:37.044Z,185
2017-10-15T12:09:49.986Z,190
2017-10-15T12:10:02.882Z,190
2017-10-15T12:10:16.304Z,190
2017-10-15T12:10:29.744Z,195
2017-10-15T12:10:42.665Z,200
2017-10-15T12:10:56.117Z,205
2017-10-15T12:11:09.059Z,205
2017-10-15T12:11:22.030Z,210
2017-10-15T12:11:35.499Z,210
2017-10-15T12:11:48.957Z,210
2017-10-15T12:12:01.301Z,210
2017-10-15T12:12:13.660Z,210
2017-10-15T12:12:27.426Z,210
2017-10-15T12:12:40.899Z,205
2017-10-15T12:12:54.376Z,205
2017-10-15T12:13:07.266Z,205
2017-10-15T12:13:20.150Z,210
2017-10-15T12:13:33.613Z,210
2017-10-15T12:13:47.088Z,210
2017-10-15T12:14:00.025Z,210
2017-10-15T12:14:12.934Z,210
2017-10-15T12:14:25.917Z,210
2017-10-15T12:14:38.801Z,210
2017-10-15T12:14:52.296Z,210
2017-10-15T12:15:04.732Z,215
2017-10-15T12:15:17.670Z,225
2017-10-15T12:15:30.532Z,230
2017-10-15T12:15:42.921Z,240
2017-10-15T12:15:56.440Z,250
2017-10-15T12:16:09.894Z,255
2017-10-15T12:16:23.348Z,255
2017-10-15T12:16:36.763Z,255
2017-10-15T12:16:50.186Z,255
2017-10-15T12:17:03.683Z,250
2017-10-15T12:17:16.037Z,245
2017-10-15T12:17:28.990Z,245
2017-10-15T12:17:42.483Z,245
2017-10-15T12:17:55.416Z,240
2017-10-15T12:18:08.808Z,240
2017-10-15T12:18:21.741Z,240
2017-10-15T12:18:34.113Z,240
2017-10-15T12:18:48.377Z,245
2017-10-15T12:19:01.328Z,245
2017-10-15T12:19:13.706Z,240
2017-10-15T12:19:26.638Z,235
2017-10-15T12:19:39.516Z,230
2017-10-15T12:19:53.165Z,220
2017-10-15T12:20:04.926Z,215
2017-10-15T12:20:17.271Z,210
2017-10-15T12:20:30.751Z,205
2017-10-15T12:20:43.911Z,205
2017-10-15T12:20:57.332Z,205
2017-10-15T12:21:09.689Z,210
2017-10-15T12:21:23.151Z,205
2017-10-15T12:21:36.693Z,210
2017-10-15T12:21:49.625Z,210
2017-10-15T12:22:03.046Z,215
2017-10-15T12:22:15.956Z,220
2017-10-15T12:22:28.868Z,230
2017-10-15T12:22:41.829Z,235
2017-10-15T12:22:54.208Z,250
2017-10-15T12:23:07.145Z,270
2017-10-15T12:23:20.049Z,285
2017-10-15T12:23:33.762Z,285
2017-10-15T12:23:47.148Z,285
2017-10-15T12:24:00.055Z,275
2017-10-15T12:24:13.012Z,265
2017-10-15T12:24:26.451Z,265
2017-10-15T12:24:39.894Z,270
2017-10-15T12:24:53.377Z,280
2017-10-15T12:25:06.869Z,290
2017-10-15T12:25:20.360Z,295
2017-10-15T12:25:33.499Z,305
2017-10-15T12:25:46.953Z,325
2017-10-15T12:26:00.343Z,325
2017-10-15T12:26:13.765Z,330
2017-10-15T12:26:27.152Z,325
2017-10-15T12:26:40.628Z,315
2017-10-15T12:26:54.067Z,310
2017-10-15T12:27:07.539Z,310
2017-10-15T12:27:21.019Z,315
2017-10-15T12:27:34.896Z,300
2017-10-15T12:27:47.756Z,285
2017-10-15T12:28:00.139Z,275
2017-10-15T12:28:13.601Z,260
2017-10-15T12:28:26.482Z,255
2017-10-15T12:28:39.936Z,260
2017-10-15T12:28:53.352Z,265
2017-10-15T12:29:06.261Z,275
2017-10-15T12:29:19.727Z,280
2017-10-15T12:29:33.175Z,290
2017-10-15T12:29:46.637Z,300
2017-10-15T12:29:58.995Z,305
2017-10-15T12:30:11.915Z,315
2017-10-15T12:30:24.844Z,325
2017-10-15T12:30:37.705Z,340
2017-10-15T12:30:50.561Z,355
2017-10-15T12:31:03.467Z,375
2017-10-15T12:31:16.975Z,395
2017-10-15T12:31:30.427Z,415
2017-10-15T12:31:43.902Z,420
2017-10-15T12:31:57.322Z,435
2017-10-15T12:32:10.809Z,455
2017-10-15T12:32:23.734Z,480
2017-10-15T12:32:37.212Z,495
2017-10-15T12:32:50.152Z,525
2017-10-15T12:33:03.050Z,555
2017-10-15T12:33:16.437Z,605
2017-10-15T12:33:29.889Z,660
2017-10-15T12:33:42.222Z,705
2017-10-15T12:33:55.928Z,730
2017-10-15T12:34:08.795Z,740
2017-10-15T12:34:22.265Z,725
2017-10-15T12:34:35.741Z,715
2017-10-15T12:35:05.718Z,675
2017-10-15T12:35:19.163Z,655
2017-10-15T12:35:32.647Z,615
2017-10-15T12:35:46.080Z,580
2017-10-15T12:35:59.014Z,560
2017-10-15T12:36:12.520Z,550
2017-10-15T12:36:25.992Z,535
2017-10-15T12:36:39.383Z,530
2017-10-15T12:36:52.273Z,520
2017-10-15T12:37:04.638Z,515
2017-10-15T12:37:17.584Z,515
2017-10-15T12:37:31.044Z,530
2017-10-15T12:37:44.471Z,550
2017-10-15T12:37:56.833Z,580
2017-10-15T12:38:09.301Z,605
2017-10-15T12:38:22.767Z,600
2017-10-15T12:38:35.689Z,615
2017-10-15T12:38:48.595Z,630
2017-10-15T12:39:00.932Z,640
2017-10-15T12:39:14.377Z,630
2017-10-15T12:39:27.824Z,620
2017-10-15T12:39:40.720Z,610
2017-10-15T12:39:54.123Z,605
2017-10-15T12:40:07.558Z,595
2017-10-15T12:40:20.481Z,585
2017-10-15T12:40:32.861Z,575
2017-10-15T12:40:46.299Z,570
2017-10-15T12:40:59.188Z,560
2017-10-15T12:41:12.122Z,545
2017-10-15T12:41:25.580Z,535
2017-10-15T12:41:39.054Z,535
2017-10-15T12:41:52.527Z,530
2017-10-15T12:42:04.872Z,530
2017-10-15T12:42:17.796Z,545
2017-10-15T12:42:30.751Z,555
2017-10-15T12:42:44.470Z,570
2017-10-15T12:42:57.372Z,580
2017-10-15T12:43:10.894Z,595
2017-10-15T12:43:24.345Z,595
2017-10-15T12:43:37.268Z,605
2017-10-15T12:43:50.204Z,595
2017-10-15T12:44:03.640Z,600
2017-10-15T12:44:16.006Z,615
2017-10-15T12:44:29.647Z,615
2017-10-15T12:44:42.560Z,610
2017-10-15T12:44:55.430Z,605
2017-10-15T12:45:08.903Z,595
2017-10-15T12:45:21.771Z,585
2017-10-15T12:45:35.234Z,585
2017-10-15T12:45:48.129Z,590
2017-10-15T12:46:01.602Z,600
2017-10-15T12:46:14.489Z,610
2017-10-15T12:46:27.441Z,625
2017-10-15T12:46:40.895Z,640
2017-10-15T12:46:54.335Z,645
2017-10-15T12:47:07.828Z,645
2017-10-15T12:47:21.338Z,645
2017-10-15T12:47:34.217Z,635
2017-10-15T12:47:47.734Z,635
2017-10-15T12:48:01.186Z,625
2017-10-15T12:48:14.119Z,615
2017-10-15T12:48:27.031Z,605
2017-10-15T12:48:40.501Z,600
2017-10-15T12:48:54.010Z,590
2017-10-15T12:49:07.487Z,585
2017-10-15T12:49:20.388Z,580
2017-10-15T12:49:33.839Z,575
2017-10-15T12:49:46.737Z,585
2017-10-15T12:50:00.227Z,600
2017-10-15T12:50:13.699Z,630
2017-10-15T12:50:27.203Z,655
2017-10-15T12:50:40.636Z,690
2017-10-15T12:50:54.059Z,715
2017-10-15T12:51:06.980Z,735
2017-10-15T12:51:19.923Z,755
2017-10-15T12:51:33.411Z,775
2017-10-15T12:51:46.310Z,785
2017-10-15T12:51:59.860Z,805
2017-10-15T12:52:13.278Z,785
2017-10-15T12:52:26.802Z,785
2017-10-15T12:52:40.334Z,760
2017-10-15T12:52:53.826Z,745
2017-10-15T12:53:06.692Z,735
2017-10-15T12:53:19.086Z,725
2017-10-15T12:53:32.067Z,710
2017-10-15T12:53:45.514Z,700
2017-10-15T12:53:58.960Z,695
2017-10-15T12:54:12.425Z,680
2017-10-15T12:54:25.851Z,665
2017-10-15T12:54:39.352Z,665
2017-10-15T12:54:52.262Z,675
2017-10-15T12:55:05.093Z,685
2017-10-15T12:55:18.581Z,685
2017-10-15T12:55:32.052Z,690
2017-10-15T12:55:45.419Z,705
2017-10-15T12:55:58.899Z,725
2017-10-15T12:56:11.837Z,685
2017-10-15T12:56:24.741Z,680
2017-10-15T12:56:37.945Z,685
2017-10-15T12:56:50.866Z,685
2017-10-15T12:57:04.340Z,670
2017-10-15T12:57:17.206Z,660
2017-10-15T12:57:30.642Z,645
2017-10-15T12:57:43.781Z,630
2017-10-15T12:57:56.682Z,625
2017-10-15T12:58:09.610Z,635
2017-10-15T12:58:23.074Z,650
2017-10-15T12:58:36.508Z,670
2017-10-15T12:58:49.958Z,690
2017-10-15T12:59:03.439Z,690
2017-10-15T12:59:16.451Z,675
2017-10-15T12:59:29.887Z,665
2017-10-15T12:59:43.320Z,650
2017-10-15T12:59:56.801Z,645
2017-10-15T13:00:10.277Z,640
2017-10-15T13:00:23.761Z,645
2017-10-15T13:00:36.715Z,645
2017-10-15T13:00:49.655Z,640
2017-10-15T13:01:01.985Z,640
2017-10-15T13:01:14.920Z,625
2017-10-15T13:01:28.305Z,610
2017-10-15T13:01:41.762Z,605
2017-10-15T13:01:54.164Z,610
2017-10-15T13:02:07.060Z,630
2017-10-15T13:02:19.973Z,655
2017-10-15T13:02:33.466Z,665
2017-10-15T13:02:45.874Z,675
2017-10-15T13:02:58.835Z,685
2017-10-15T13:03:11.775Z,685
2017-10-15T13:03:24.675Z,690
2017-10-15T13:03:38.068Z,680
2017-10-15T13:03:50.967Z,680
2017-10-15T13:04:04.349Z,685
2017-10-15T13:04:17.821Z,695
2017-10-15T13:04:30.716Z,710
2017-10-15T13:04:44.186Z,705
2017-10-15T13:04:57.121Z,700
2017-10-15T13:05:10.074Z,670
2017-10-15T13:05:23.465Z,655
2017-10-15T13:05:35.835Z,645
2017-10-15T13:05:48.749Z,635
2017-10-15T13:06:01.643Z,620
2017-10-15T13:06:15.091Z,615
2017-10-15T13:06:27.970Z,600
2017-10-15T13:06:40.871Z,585
2017-10-15T13:06:54.333Z,570
2017-10-15T13:07:07.770Z,560
2017-10-15T13:07:21.226Z,560
2017-10-15T13:07:34.666Z,570
2017-10-15T13:07:47.755Z,590
2017-10-15T13:08:00.687Z,605
2017-10-15T13:08:14.087Z,610
2017-10-15T13:08:26.967Z,620
2017-10-15T13:08:40.423Z,610
2017-10-15T13:08:53.941Z,610
2017-10-15T13:09:05.764Z,590
2017-10-15T13:09:19.266Z,580
2017-10-15T13:09:32.683Z,570
2017-10-15T13:09:45.088Z,560
2017-10-15T13:09:58.563Z,540
2017-10-15T13:10:11.482Z,530
2017-10-15T13:10:24.981Z,520
2017-10-15T13:10:37.879Z,505
2017-10-15T13:10:51.260Z,490
2017-10-15T13:11:04.711Z,475
2017-10-15T13:11:18.126Z,475
2017-10-15T13:11:31.591Z,470
2017-10-15T13:11:45.007Z,470
2017-10-15T13:11:57.386Z,475
2017-10-15T13:12:10.308Z,480
2017-10-15T13:12:23.753Z,490
2017-10-15T13:12:37.199Z,500
2017-10-15T13:12:50.816Z,505
2017-10-15T13:13:03.752Z,515
2017-10-15T13:13:17.197Z,525
2017-10-15T13:13:30.646Z,530
2017-10-15T13:13:43.552Z,520
2017-10-15T13:13:57.012Z,520
2017-10-15T13:14:09.356Z,515
2017-10-15T13:14:22.829Z,515
2017-10-15T13:14:35.747Z,515
2017-10-15T13:14:48.645Z,515
2017-10-15T13:15:02.130Z,525
2017-10-15T13:15:15.550Z,530
2017-10-15T13:15:28.987Z,540
2017-10-15T13:15:42.430Z,550
2017-10-15T13:15:55.875Z,565
2017-10-15T13:16:08.785Z,560
2017-10-15T13:16:22.206Z,555
2017-10-15T13:16:35.636Z,545
2017-10-15T13:16:49.058Z,530
2017-10-15T13:17:02.490Z,520
2017-10-15T13:17:15.909Z,515
2017-10-15T13:17:29.353Z,515
2017-10-15T13:17:42.857Z,510
2017-10-15T13:17:55.854Z,505
2017-10-15T13:18:08.255Z,505
2017-10-15T13:18:21.174Z,490
2017-10-15T13:18:34.657Z,485
2017-10-15T13:18:48.086Z,480
2017-10-15T13:19:00.971Z,490
2017-10-15T13:19:13.840Z,490
2017-10-15T13:19:27.285Z,495
2017-10-15T13:19:40.164Z,500
2017-10-15T13:19:53.132Z,500
2017-10-15T13:20:06.592Z,500
2017-10-15T13:20:18.941Z,505
2017-10-15T13:20:32.370Z,510
2017-10-15T13:20:45.809Z,510
2017-10-15T13:20:58.676Z,505
2017-10-15T13:21:11.573Z,500
2017-10-15T13:21:23.921Z,505
2017-10-15T13:21:36.778Z,505
2017-10-15T13:21:49.685Z,510
2017-10-15T13:22:03.119Z,515
2017-10-15T13:22:16.014Z,520
2017-10-15T13:22:29.553Z,515
2017-10-15T13:22:42.496Z,510
2017-10-15T13:22:55.963Z,510
2017-10-15T13:23:09.440Z,515
2017-10-15T13:23:22.565Z,515
2017-10-15T13:23:35.988Z,515
2017-10-15T13:23:49.503Z,500
2017-10-15T13:24:02.936Z,490
2017-10-15T13:24:15.857Z,470
2017-10-15T13:24:29.244Z,455
2017-10-15T13:24:42.174Z,445
2017-10-15T13:24:55.112Z,445
2017-10-15T13:25:08.544Z,440
2017-10-15T13:25:21.407Z,440
2017-10-15T13:25:34.867Z,445
2017-10-15T13:25:48.330Z,450
2017-10-15T13:26:01.242Z,460
2017-10-15T13:26:14.686Z,470
2017-10-15T13:26:28.094Z,480
2017-10-15T13:26:41.515Z,490
2017-10-15T13:26:55.015Z,500
2017-10-15T13:27:07.926Z,505
2017-10-15T13:27:21.348Z,510
2017-10-15T13:27:33.671Z,500
2017-10-15T13:27:46.004Z,495
2017-10-15T13:28:00.229Z,490
2017-10-15T13:28:13.142Z,480
2017-10-15T13:28:26.059Z,465
2017-10-15T13:28:39.512Z,455
2017-10-15T13:28:52.984Z,455
2017-10-15T13:29:05.892Z,450
2017-10-15T13:29:19.360Z,450
2017-10-15T13:29:32.829Z,450
2017-10-15T13:29:46.281Z,445
2017-10-15T13:29:59.708Z,440
2017-10-15T13:30:12.601Z,435
2017-10-15T13:30:24.984Z,430
2017-10-15T13:30:38.446Z,430
2017-10-15T13:30:51.867Z,435
2017-10-15T13:31:04.855Z,435
2017-10-15T13:31:17.198Z,435
2017-10-15T13:31:30.119Z,435
2017-10-15T13:31:43.006Z,435
2017-10-15T13:31:56.429Z,425
2017-10-15T13:32:09.896Z,415
2017-10-15T13:32:22.775Z,400
2017-10-15T13:32:35.691Z,385
2017-10-15T13:32:49.156Z,370
2017-10-15T13:33:01.478Z,360
2017-10-15T13:33:14.388Z,350
2017-10-15T13:33:27.355Z,345
2017-10-15T13:33:40.814Z,340
2017-10-15T13:33:54.305Z,340
2017-10-15T13:34:07.745Z,340
2017-10-15T13:34:20.656Z,345
2017-10-15T13:34:33.569Z,350
2017-10-15T13:34:46.457Z,350
2017-10-15T13:34:59.372Z,345
2017-10-15T13:35:12.875Z,340
2017-10-15T13:35:26.372Z,335
2017-10-15T13:35:39.756Z,330
2017-10-15T13:35:52.671Z,325
2017-10-15T13:36:05.538Z,325
2017-10-15T13:36:18.934Z,325
2017-10-15T13:36:32.338Z,325
2017-10-15T13:36:45.814Z,325
2017-10-15T13:36:58.730Z,320
2017-10-15T13:37:11.634Z,320
2017-10-15T13:37:23.463Z,315
2017-10-15T13:37:36.429Z,315
2017-10-15T13:37:49.909Z,315
2017-10-15T13:38:03.321Z,315
2017-10-15T13:38:16.281Z,310
2017-10-15T13:38:29.804Z,305
2017-10-15T13:38:43.297Z,305
2017-10-15T13:38:56.822Z,300
2017-10-15T13:39:09.698Z,300
2017-10-15T13:39:22.081Z,300
2017-10-15T13:39:34.950Z,295
2017-10-15T13:39:48.452Z,290
2017-10-15T13:40:00.715Z,290
2017-10-15T13:40:14.140Z,295
2017-10-15T13:40:27.600Z,290
2017-10-15T13:40:41.046Z,290
2017-10-15T13:40:53.894Z,295
2017-10-15T13:41:07.329Z,295
2017-10-15T13:41:20.809Z,295
2017-10-15T13:41:34.268Z,295
2017-10-15T13:41:47.194Z,300
2017-10-15T13:42:00.076Z,300
2017-10-15T13:42:12.477Z,310
2017-10-15T13:42:25.474Z,315
2017-10-15T13:42:38.925Z,320
2017-10-15T13:42:51.807Z,330
2017-10-15T13:43:05.354Z,335
2017-10-15T13:43:18.260Z,340
2017-10-15T13:43:31.645Z,345
2017-10-15T13:43:45.123Z,355
2017-10-15T13:43:58.628Z,355
2017-10-15T13:44:12.135Z,365
2017-10-15T13:44:25.101Z,375
2017-10-15T13:44:38.542Z,380
2017-10-15T13:44:51.931Z,390
2017-10-15T13:45:05.395Z,400
2017-10-15T13:45:18.515Z,405
2017-10-15T13:45:31.965Z,410
2017-10-15T13:45:45.399Z,410
2017-10-15T13:45:57.812Z,405
2017-10-15T13:46:10.712Z,405
2017-10-15T13:46:24.150Z,400
2017-10-15T13:46:37.652Z,400
2017-10-15T13:46:50.577Z,400
2017-10-15T13:47:04.009Z,405
2017-10-15T13:47:17.435Z,405
2017-10-15T13:47:30.383Z,405
2017-10-15T13:47:43.285Z,410
2017-10-15T13:47:56.962Z,410
2017-10-15T13:48:09.947Z,410
2017-10-15T13:48:23.408Z,410
2017-10-15T13:48:36.801Z,410
2017-10-15T13:48:49.744Z,410
2017-10-15T13:49:03.262Z,405
2017-10-15T13:49:16.727Z,400
2017-10-15T13:49:30.183Z,400
2017-10-15T13:49:43.045Z,390
2017-10-15T13:49:56.480Z,385
2017-10-15T13:50:09.953Z,380
2017-10-15T13:50:23.439Z,375
2017-10-15T13:50:36.926Z,375
2017-10-15T13:50:49.825Z,380
2017-10-15T13:51:03.284Z,380
2017-10-15T13:51:15.635Z,390
2017-10-15T13:51:28.518Z,390
2017-10-15T13:51:41.975Z,395
2017-10-15T13:51:54.908Z,390
2017-10-15T13:52:08.289Z,380
2017-10-15T13:52:21.197Z,375
2017-10-15T13:52:34.106Z,370
2017-10-15T13:52:47.021Z,370
2017-10-15T13:53:00.425Z,375
2017-10-15T13:53:13.873Z,380
2017-10-15T13:53:26.288Z,380
2017-10-15T13:53:39.719Z,385
2017-10-15T13:53:53.178Z,380
2017-10-15T13:54:06.611Z,380
2017-10-15T13:54:20.101Z,385
2017-10-15T13:54:33.519Z,390
2017-10-15T13:54:46.998Z,390
2017-10-15T13:55:00.486Z,390
2017-10-15T13:55:13.929Z,400
2017-10-15T13:55:27.396Z,405
2017-10-15T13:55:40.838Z,410
2017-10-15T13:55:54.244Z,405
2017-10-15T13:56:07.724Z,405
2017-10-15T13:56:21.214Z,405
2017-10-15T13:56:34.664Z,405
2017-10-15T13:56:46.994Z,405
2017-10-15T13:56:59.386Z,415
2017-10-15T13:57:12.330Z,415
2017-10-15T13:57:25.257Z,415
2017-10-15T13:57:38.176Z,420
2017-10-15T13:57:51.077Z,420
2017-10-15T13:58:03.983Z,415
2017-10-15T13:58:18.179Z,415
2017-10-15T13:58:31.121Z,410
2017-10-15T13:58:44.603Z,405
2017-10-15T13:58:57.527Z,400
2017-10-15T13:59:10.970Z,395
2017-10-15T13:59:24.349Z,395
2017-10-15T13:59:37.747Z,390
2017-10-15T13:59:49.548Z,390
2017-10-15T14:00:02.990Z,390
2017-10-15T14:00:15.373Z,390
2017-10-15T14:00:28.889Z,390
2017-10-15T14:00:42.336Z,385
2017-10-15T14:00:55.195Z,385
2017-10-15T14:01:08.127Z,380
2017-10-15T14:01:21.593Z,380
2017-10-15T14:01:35.051Z,370
2017-10-15T14:01:47.957Z,370
2017-10-15T14:02:00.886Z,370
2017-10-15T14:02:13.767Z,370
2017-10-15T14:02:26.661Z,370
2017-10-15T14:02:40.121Z,375
2017-10-15T14:02:53.026Z,370
2017-10-15T14:03:06.545Z,370
2017-10-15T14:03:19.954Z,360
2017-10-15T14:03:33.361Z,355
2017-10-15T14:03:46.204Z,350
2017-10-15T14:03:59.660Z,350
2017-10-15T14:04:13.103Z,350
2017-10-15T14:04:26.623Z,355
2017-10-15T14:04:40.049Z,345
2017-10-15T14:04:53.489Z,330
2017-10-15T14:05:05.857Z,325
2017-10-15T14:05:19.005Z,325
2017-10-15T14:05:32.458Z,320
2017-10-15T14:05:45.400Z,320
2017-10-15T14:05:58.867Z,320
2017-10-15T14:06:11.745Z,320
2017-10-15T14:06:25.244Z,325
2017-10-15T14:06:38.710Z,325
2017-10-15T14:06:51.072Z,320
2017-10-15T14:07:03.975Z,315
2017-10-15T14:07:17.419Z,310
2017-10-15T14:07:30.835Z,305
2017-10-15T14:07:44.284Z,300
2017-10-15T14:07:57.266Z,295
2017-10-15T14:08:10.136Z,295
2017-10-15T14:08:22.102Z,295
2017-10-15T14:08:35.566Z,290
2017-10-15T14:08:48.990Z,290
2017-10-15T14:09:00.803Z,295
2017-10-15T14:09:13.710Z,300
2017-10-15T14:09:27.184Z,300
2017-10-15T14:09:40.036Z,305
2017-10-15T14:09:53.512Z,305
2017-10-15T14:10:06.990Z,300
2017-10-15T14:10:20.442Z,290
2017-10-15T14:10:33.368Z,285
2017-10-15T14:10:46.821Z,285
2017-10-15T14:10:59.751Z,280
2017-10-15T14:11:12.694Z,280
2017-10-15T14:11:26.189Z,285
2017-10-15T14:11:39.718Z,290
2017-10-15T14:11:53.180Z,295
2017-10-15T14:12:06.694Z,300
2017-10-15T14:12:19.660Z,305
2017-10-15T14:12:32.498Z,315
2017-10-15T14:12:45.393Z,320
2017-10-15T14:12:58.316Z,330
2017-10-15T14:13:11.242Z,335
2017-10-15T14:13:25.707Z,345
2017-10-15T14:13:39.177Z,345
2017-10-15T14:13:52.593Z,350
2017-10-15T14:14:05.963Z,355
2017-10-15T14:14:19.427Z,360
2017-10-15T14:14:32.852Z,365
2017-10-15T14:14:46.333Z,365
2017-10-15T14:14:59.752Z,365
2017-10-15T14:15:13.159Z,360
2017-10-15T14:15:26.523Z,360
2017-10-15T14:15:39.479Z,355
2017-10-15T14:15:51.823Z,355
2017-10-15T14:16:04.701Z,355
2017-10-15T14:16:16.529Z,355
2017-10-15T14:16:29.441Z,355
2017-10-15T14:16:42.900Z,360
2017-10-15T14:16:55.849Z,360
2017-10-15T14:17:08.814Z,360
2017-10-15T14:17:21.707Z,365
2017-10-15T14:17:34.097Z,370
2017-10-15T14:17:47.583Z,375
2017-10-15T14:18:01.055Z,375
2017-10-15T14:18:14.542Z,380
2017-10-15T14:18:27.022Z,380
2017-10-15T14:18:40.492Z,380
2017-10-15T14:18:53.955Z,380
2017-10-15T14:19:06.831Z,385
2017-10-15T14:19:20.271Z,385
2017-10-15T14:19:32.629Z,385
2017-10-15T14:19:46.098Z,395
2017-10-15T14:19:59.543Z,410
2017-10-15T14:20:12.982Z,415
2017-10-15T14:20:26.491Z,420
2017-10-15T14:20:39.383Z,430
2017-10-15T14:20:52.790Z,435
2017-10-15T14:21:05.170Z,435
2017-10-15T14:21:17.475Z,440
2017-10-15T14:21:30.930Z,445
2017-10-15T14:21:43.867Z,450
2017-10-15T14:21:57.363Z,455
2017-10-15T14:22:10.298Z,450
2017-10-15T14:22:23.188Z,445
2017-10-15T14:22:36.625Z,445
2017-10-15T14:22:48.403Z,445
2017-10-15T14:23:01.815Z,445
2017-10-15T14:23:15.269Z,445
2017-10-15T14:23:28.721Z,445
2017-10-15T14:23:41.631Z,445
2017-10-15T14:23:55.102Z,445
2017-10-15T14:24:08.529Z,440
2017-10-15T14:24:21.438Z,440
2017-10-15T14:24:34.905Z,435
2017-10-15T14:24:47.764Z,440
2017-10-15T14:25:01.169Z,440
2017-10-15T14:25:14.073Z,445
2017-10-15T14:25:25.923Z,450
2017-10-15T14:25:38.260Z,455
2017-10-15T14:25:51.168Z,455
2017-10-15T14:26:04.685Z,455
2017-10-15T14:26:17.670Z,460
2017-10-15T14:26:30.589Z,460
2017-10-15T14:26:43.975Z,465
2017-10-15T14:26:57.445Z,470
2017-10-15T14:27:10.381Z,475
2017-10-15T14:27:23.267Z,480
2017-10-15T14:27:36.129Z,480
2017-10-15T14:27:49.554Z,485
2017-10-15T14:28:03.010Z,495
2017-10-15T14:28:16.420Z,500
2017-10-15T14:28:30.121Z,500
2017-10-15T14:28:43.560Z,505
2017-10-15T14:28:56.547Z,500
2017-10-15T14:29:09.415Z,505
2017-10-15T14:29:22.295Z,520
2017-10-15T14:29:35.774Z,535
2017-10-15T14:29:49.240Z,550
2017-10-15T14:30:02.154Z,565
2017-10-15T14:30:15.038Z,575
2017-10-15T14:30:27.894Z,580
2017-10-15T14:30:40.781Z,585
2017-10-15T14:30:54.210Z,580
2017-10-15T14:31:07.586Z,580
2017-10-15T14:31:20.512Z,580
2017-10-15T14:31:33.968Z,580
2017-10-15T14:31:46.863Z,575
2017-10-15T14:31:59.827Z,575
2017-10-15T14:32:13.269Z,570
2017-10-15T14:32:26.742Z,565
2017-10-15T14:32:40.197Z,555
2017-10-15T14:32:53.692Z,550
2017-10-15T14:33:06.537Z,540
2017-10-15T14:33:19.472Z,535
2017-10-15T14:33:31.853Z,530
2017-10-15T14:33:44.755Z,530
2017-10-15T14:33:58.250Z,525
2017-10-15T14:34:11.197Z,520
2017-10-15T14:34:24.096Z,515
2017-10-15T14:34:37.498Z,510
2017-10-15T14:34:51.004Z,510
2017-10-15T14:35:04.473Z,500
2017-10-15T14:35:17.329Z,495
2017-10-15T14:35:30.781Z,490
2017-10-15T14:35:43.702Z,490
2017-10-15T14:35:56.652Z,485
2017-10-15T14:36:09.750Z,475
2017-10-15T14:36:23.176Z,470
2017-10-15T14:36:36.618Z,455
2017-10-15T14:36:50.117Z,440
2017-10-15T14:37:03.609Z,430
2017-10-15T14:37:16.522Z,425
2017-10-15T14:37:29.924Z,425
2017-10-15T14:37:42.833Z,425
2017-10-15T14:37:56.294Z,425
2017-10-15T14:38:08.696Z,425
2017-10-15T14:38:22.160Z,425
2017-10-15T14:38:35.573Z,425
2017-10-15T14:38:49.036Z,425
2017-10-15T14:39:02.476Z,430
2017-10-15T14:39:15.893Z,430
2017-10-15T14:39:29.387Z,425
2017-10-15T14:39:42.860Z,420
2017-10-15T14:39:55.904Z,415
2017-10-15T14:40:09.376Z,415
2017-10-15T14:40:22.330Z,405
2017-10-15T14:40:35.809Z,405
2017-10-15T14:40:49.250Z,405
2017-10-15T14:41:01.574Z,405
2017-10-15T14:41:15.045Z,405
2017-10-15T14:41:28.525Z,400
2017-10-15T14:41:41.946Z,400
2017-10-15T14:41:54.902Z,395
2017-10-15T14:42:08.360Z,390
2017-10-15T14:42:21.819Z,385
2017-10-15T14:42:35.335Z,385
2017-10-15T14:42:48.206Z,385
2017-10-15T14:43:01.125Z,385
2017-10-15T14:43:14.506Z,385
2017-10-15T14:43:28.083Z,390
2017-10-15T14:43:41.520Z,390
2017-10-15T14:43:54.495Z,395
2017-10-15T14:44:07.963Z,395
2017-10-15T14:44:20.855Z,395
2017-10-15T14:44:34.372Z,395
2017-10-15T14:44:47.281Z,395
2017-10-15T14:45:00.776Z,395
2017-10-15T14:45:14.236Z,400
2017-10-15T14:45:27.158Z,400
2017-10-15T14:45:40.064Z,405
2017-10-15T14:45:53.572Z,410
2017-10-15T14:46:06.979Z,415
2017-10-15T14:46:19.388Z,420
2017-10-15T14:46:32.785Z,420
2017-10-15T14:46:46.225Z,430
2017-10-15T14:46:59.120Z,440
2017-10-15T14:47:12.575Z,450
2017-10-15T14:47:25.502Z,460
2017-10-15T14:47:38.389Z,470
2017-10-15T14:47:50.226Z,465
2017-10-15T14:48:03.126Z,465
2017-10-15T14:48:16.595Z,460
2017-10-15T14:48:29.620Z,455
2017-10-15T14:48:43.079Z,445
2017-10-15T14:48:55.494Z,435
2017-10-15T14:49:09.008Z,425
2017-10-15T14:49:22.705Z,420
2017-10-15T14:49:36.139Z,415
2017-10-15T14:49:48.469Z,415
2017-10-15T14:50:01.391Z,415
2017-10-15T14:50:14.889Z,415
2017-10-15T14:50:28.292Z,415
2017-10-15T14:50:41.782Z,410
2017-10-15T14:50:55.262Z,405
2017-10-15T14:51:08.724Z,400
2017-10-15T14:51:21.637Z,395
2017-10-15T14:51:35.116Z,390
2017-10-15T14:51:48.047Z,385
2017-10-15T14:52:01.518Z,380
2017-10-15T14:52:14.375Z,375
2017-10-15T14:52:26.774Z,370
2017-10-15T14:52:39.173Z,370
2017-10-15T14:52:52.660Z,365
2017-10-15T14:53:06.071Z,360
2017-10-15T14:53:18.974Z,360
2017-10-15T14:53:31.856Z,365
2017-10-15T14:53:45.288Z,370
2017-10-15T14:53:58.213Z,375
2017-10-15T14:54:11.128Z,375
2017-10-15T14:54:24.665Z,380
2017-10-15T14:54:38.097Z,385
2017-10-15T14:54:51.545Z,390
2017-10-15T14:55:05.033Z,395
2017-10-15T14:55:18.467Z,405
2017-10-15T14:55:31.944Z,405
2017-10-15T14:55:44.854Z,405
2017-10-15T14:55:57.778Z,395
2017-10-15T14:56:10.697Z,385
2017-10-15T14:56:23.620Z,375
2017-10-15T14:56:37.063Z,370
2017-10-15T14:56:49.447Z,365
2017-10-15T14:57:01.819Z,365
2017-10-15T14:57:15.281Z,365
2017-10-15T14:57:28.741Z,365
2017-10-15T14:57:42.142Z,365
2017-10-15T14:57:55.577Z,375
2017-10-15T14:58:07.911Z,375
2017-10-15T14:58:20.836Z,380
2017-10-15T14:58:34.380Z,390
2017-10-15T14:58:47.799Z,405
2017-10-15T14:59:00.674Z,420